KCLS/CLS METAR and TAF weather

Enter ICAO airport designator
Station Type Date Time Source
KCLS METAR 2018/12/10 20:35 UTC NOAA

KCLS 102035Z AUTO 16007KT 10SM SCT010 SCT035 SCT070 09/07 A3028 RMK AO2


Station Type Date Time Source
KCLS Decoded METAR 2018/12/10 20:35 UTC NOAA

Station name not available
Dec 10, 2018 - 03:35 PM EST / 2018.12.10 2035 UTC
Wind: from the SSE (160 degrees) at 8 MPH (7 KT):0
Visibility: 10 mile(s):0
Sky conditions: partly cloudy
Temperature: 48 F (9 C)
Dew Point: 44 F (7 C)
Relative Humidity: 87%
Pressure (altimeter): 30.28 in. Hg (1025 hPa)
ob: KCLS 102035Z AUTO 16007KT 10SM SCT010 SCT035 SCT070 09/07 A3028 RMK AO2
cycle: 20

Station Type Date Time Source
KCLS TAF UTC NOAA

Error!


Example: see airport list